Time;durP1;ratioP1;P1;durP2;ratioP2;P2;SDS_P1;SDS_P2;PMS_P1;PMS_P2;Temp;Humidity;BMP_temperature;BMP_pressure;BME280_temperature;BME280_humidity;BME280_pressure;Samples;Min_cycle;Max_cycle;Signal;HPM_P1;HPM_P2
2022/11/06 00:01:24;;;;;;;21.45;13.50;;;;;;;;;;4918822;29;20217;-58
2022/11/06 00:03:52;;;;;;;23.55;13.63;;;;;;;;;;4918095;29;20597;-52
2022/11/06 00:09:07;;;;;;;24.98;14.80;;;;;;;;;;4920706;29;20204;-53
2022/11/06 00:11:34;;;;;;;23.95;14.90;;;;;;;;;;4921731;29;20232;-56
2022/11/06 00:14:01;;;;;;;23.02;13.98;;;;;;;;;;4922107;29;20212;-57
2022/11/06 00:16:28;;;;;;;22.05;14.93;;;;;;;;;;4922487;29;20316;-55
2022/11/06 00:18:55;;;;;;;25.48;15.90;;;;;;;;;;4921729;29;20265;-52
2022/11/06 00:21:26;;;;;;;24.02;14.55;;;;;;;;;;4921340;29;20676;-51
2022/11/06 00:23:54;;;;;;;22.55;14.27;;;;;;;;;;4921242;29;20269;-56
2022/11/06 00:26:26;;;;;;;29.35;15.55;;;;;;;;;;4921465;29;20211;-53
2022/11/06 00:28:53;;;;;;;23.60;15.23;;;;;;;;;;4921855;29;20532;-51
2022/11/06 00:31:23;;;;;;;25.80;15.55;;;;;;;;;;4921255;29;20205;-54
2022/11/06 00:33:52;;;;;;;25.70;15.82;;;;;;;;;;4921346;29;20213;-51
2022/11/06 00:36:20;;;;;;;24.55;15.23;;;;;;;;;;4920550;29;20251;-51
2022/11/06 00:38:53;;;;;;;22.77;14.43;;;;;;;;;;4921239;29;20197;-52
2022/11/06 00:41:21;;;;;;;23.15;14.70;;;;;;;;;;4921546;29;20287;-53
2022/11/06 00:43:51;;;;;;;22.88;14.73;;;;;;;;;;4921316;29;20228;-56
2022/11/06 00:46:18;;;;;;;27.00;15.45;;;;;;;;;;4921023;29;20201;-51
2022/11/06 00:48:45;;;;;;;23.92;15.40;;;;;;;;;;4920685;29;20644;-57
2022/11/06 00:51:13;;;;;;;28.75;16.33;;;;;;;;;;4921435;29;20205;-52
2022/11/06 00:53:41;;;;;;;39.90;19.15;;;;;;;;;;4921216;29;20529;-52
2022/11/06 00:56:11;;;;;;;32.97;17.30;;;;;;;;;;4920783;29;20209;-58
2022/11/06 00:58:39;;;;;;;29.25;16.58;;;;;;;;;;4920798;29;20204;-53
2022/11/06 01:01:06;;;;;;;25.50;16.55;;;;;;;;;;4903782;29;20703;-56
2022/11/06 01:03:33;;;;;;;26.17;15.43;;;;;;;;;;4920519;29;20232;-55
2022/11/06 01:06:05;;;;;;;24.77;15.38;;;;;;;;;;4920591;29;20218;-56
2022/11/06 01:08:32;;;;;;;22.92;15.02;;;;;;;;;;4920820;29;20273;-55
2022/11/06 01:11:09;;;;;;;25.50;15.68;;;;;;;;;;4921112;29;20212;-57
2022/11/06 01:13:36;;;;;;;25.35;14.88;;;;;;;;;;4920152;29;20631;-58
2022/11/06 01:16:05;;;;;;;24.20;14.52;;;;;;;;;;4921061;29;20538;-53
2022/11/06 01:18:34;;;;;;;18.65;13.07;;;;;;;;;;4920096;29;20597;-56
2022/11/06 01:21:10;;;;;;;22.33;14.85;;;;;;;;;;4920476;29;20201;-54
2022/11/06 01:23:38;;;;;;;24.67;15.43;;;;;;;;;;4920208;29;20702;-56
2022/11/06 01:26:06;;;;;;;21.45;14.52;;;;;;;;;;4920295;29;20327;-56
2022/11/06 01:28:34;;;;;;;23.27;15.63;;;;;;;;;;4920569;29;20230;-52
2022/11/06 01:31:14;;;;;;;27.05;16.70;;;;;;;;;;4920478;29;20201;-55
2022/11/06 01:33:41;;;;;;;28.15;17.10;;;;;;;;;;4920371;29;20213;-55
2022/11/06 01:36:10;;;;;;;30.70;18.50;;;;;;;;;;4920090;29;20228;-58
2022/11/06 01:38:41;;;;;;;35.03;19.50;;;;;;;;;;4919910;29;20196;-55
2022/11/06 01:41:13;;;;;;;30.90;20.27;;;;;;;;;;4919889;29;20205;-57
2022/11/06 01:43:50;;;;;;;32.80;20.08;;;;;;;;;;4919816;29;20702;-56
2022/11/06 01:46:18;;;;;;;32.20;19.00;;;;;;;;;;4919754;29;20196;-54
2022/11/06 01:48:59;;;;;;;31.75;20.42;;;;;;;;;;4919671;29;20208;-54
2022/11/06 01:51:27;;;;;;;34.42;20.50;;;;;;;;;;4919637;29;20197;-54
2022/11/06 01:53:55;;;;;;;32.25;18.83;;;;;;;;;;4903503;29;20220;-53
2022/11/06 01:56:22;;;;;;;31.70;19.58;;;;;;;;;;4903448;29;20327;-53
2022/11/06 01:58:51;;;;;;;32.67;19.02;;;;;;;;;;4919979;29;20235;-56
2022/11/06 02:01:18;;;;;;;30.77;19.95;;;;;;;;;;4903187;29;20236;-51
2022/11/06 02:04:08;;;;;;;39.00;21.83;;;;;;;;;;4903694;29;20251;-55
2022/11/06 02:06:35;;;;;;;44.38;23.20;;;;;;;;;;4903413;29;20220;-54
2022/11/06 02:09:10;;;;;;;58.30;26.13;;;;;;;;;;4903131;29;20678;-55
2022/11/06 02:11:41;;;;;;;59.30;29.98;;;;;;;;;;4919773;29;20644;-56
2022/11/06 02:14:29;;;;;;;64.90;30.20;;;;;;;;;;4919196;29;20260;-54
2022/11/06 02:17:05;;;;;;;70.95;33.22;;;;;;;;;;4919271;29;20205;-58
2022/11/06 02:19:50;;;;;;;71.07;34.70;;;;;;;;;;4903198;29;20201;-55
2022/11/06 02:22:36;;;;;;;82.97;38.05;;;;;;;;;;4919369;29;20223;-58
2022/11/06 02:25:15;;;;;;;87.38;37.90;;;;;;;;;;4919464;29;20299;-52
2022/11/06 02:28:03;;;;;;;83.78;37.15;;;;;;;;;;4919607;29;20208;-56
2022/11/06 02:30:34;;;;;;;93.43;37.63;;;;;;;;;;4902572;29;20201;-55
2022/11/06 02:33:05;;;;;;;91.88;38.42;;;;;;;;;;4902523;29;20223;-54
2022/11/06 02:35:48;;;;;;;98.38;40.10;;;;;;;;;;4919697;29;20213;-56
2022/11/06 02:38:29;;;;;;;112.20;41.90;;;;;;;;;;4918980;29;20215;-54
2022/11/06 02:40:59;;;;;;;105.95;41.25;;;;;;;;;;4919179;29;20200;-52
2022/11/06 02:43:34;;;;;;;106.90;41.38;;;;;;;;;;4918667;29;20212;-54
2022/11/06 02:46:07;;;;;;;110.28;42.53;;;;;;;;;;4902455;29;20212;-56
2022/11/06 02:48:39;;;;;;;102.45;42.35;;;;;;;;;;4902495;29;20299;-55
2022/11/06 02:51:09;;;;;;;108.65;42.72;;;;;;;;;;4918842;29;20667;-54
2022/11/06 02:53:38;;;;;;;105.90;43.00;;;;;;;;;;4918755;29;20306;-57
2022/11/06 02:56:10;;;;;;;94.65;40.80;;;;;;;;;;4902195;29;20533;-57
2022/11/06 02:58:52;;;;;;;112.38;44.08;;;;;;;;;;4918797;29;20247;-55
2022/11/06 03:01:23;;;;;;;103.07;41.97;;;;;;;;;;4919679;29;20204;-56
2022/11/06 03:03:53;;;;;;;104.93;41.33;;;;;;;;;;4918491;29;20660;-57
2022/11/06 03:06:32;;;;;;;100.72;41.05;;;;;;;;;;4902756;29;20213;-56
2022/11/06 03:09:06;;;;;;;114.25;41.45;;;;;;;;;;4918539;29;20197;-55
2022/11/06 03:11:37;;;;;;;104.00;40.85;;;;;;;;;;4903153;29;20252;-53
2022/11/06 03:14:04;;;;;;;105.45;41.05;;;;;;;;;;4902444;29;20205;-54
2022/11/06 03:16:50;;;;;;;113.50;42.97;;;;;;;;;;4918437;29;20236;-52
2022/11/06 03:19:29;;;;;;;106.65;42.20;;;;;;;;;;4919055;29;20296;-56
2022/11/06 03:22:09;;;;;;;122.70;44.22;;;;;;;;;;4918754;29;20205;-56
2022/11/06 03:24:43;;;;;;;119.95;41.47;;;;;;;;;;4902044;29;20224;-57
2022/11/06 03:27:17;;;;;;;111.35;41.78;;;;;;;;;;4919059;29;20200;-55
2022/11/06 03:29:48;;;;;;;122.13;43.30;;;;;;;;;;4902435;29;20192;-57
2022/11/06 03:32:36;;;;;;;125.18;42.72;;;;;;;;;;4902609;29;20201;-57
2022/11/06 03:35:08;;;;;;;128.88;44.97;;;;;;;;;;4902354;29;20213;-55
2022/11/06 03:37:42;;;;;;;116.78;43.45;;;;;;;;;;4902350;29;20224;-55
2022/11/06 03:40:14;;;;;;;133.38;45.58;;;;;;;;;;4901864;29;20257;-55
2022/11/06 03:42:42;;;;;;;129.60;45.67;;;;;;;;;;4903942;29;20227;-55
2022/11/06 03:45:14;;;;;;;138.25;46.72;;;;;;;;;;4921819;29;20232;-55
2022/11/06 03:48:03;;;;;;;144.35;48.58;;;;;;;;;;4922139;29;20538;-55
2022/11/06 03:50:34;;;;;;;142.60;45.83;;;;;;;;;;4921759;29;20280;-55
2022/11/06 03:53:06;;;;;;;129.05;45.10;;;;;;;;;;4906870;29;20197;-53
2022/11/06 03:55:54;;;;;;;140.10;46.22;;;;;;;;;;4922062;29;20563;-55
2022/11/06 03:58:25;;;;;;;127.68;44.88;;;;;;;;;;4921646;29;20200;-54
2022/11/06 04:00:53;;;;;;;131.50;43.75;;;;;;;;;;4906067;29;20201;-56
2022/11/06 04:03:55;;;;;;;117.63;44.22;;;;;;;;;;4905616;29;20216;-54
2022/11/06 04:06:25;;;;;;;121.38;43.50;;;;;;;;;;4902246;29;20204;-55
2022/11/06 04:14:26;;;;;;;119.20;43.95;;;;;;;;;;4907598;29;20212;-54
2022/11/06 04:16:56;;;;;;;122.22;43.25;;;;;;;;;;4904974;29;20215;-56
2022/11/06 04:19:23;;;;;;;111.78;41.97;;;;;;;;;;4905495;29;20209;-54
2022/11/06 04:22:01;;;;;;;116.97;42.85;;;;;;;;;;4921330;29;20291;-55
2022/11/06 04:27:58;;;;;;;114.15;41.15;;;;;;;;;;4922024;29;20209;-54
2022/11/06 04:30:26;;;;;;;112.45;42.25;;;;;;;;;;4905128;29;20200;-56
2022/11/06 04:33:01;;;;;;;125.18;42.65;;;;;;;;;;4905161;29;20237;-56
2022/11/06 04:35:40;;;;;;;125.38;41.45;;;;;;;;;;4904808;29;20279;-54
2022/11/06 04:38:14;;;;;;;119.57;42.42;;;;;;;;;;4921542;29;20275;-54
2022/11/06 04:41:19;;;;;;;122.65;40.65;;;;;;;;;;4905495;29;20208;-53
2022/11/06 04:43:51;;;;;;;112.47;40.40;;;;;;;;;;4848036;29;20257;-55
2022/11/06 04:46:22;;;;;;;126.78;43.50;;;;;;;;;;4863860;29;20214;-56
2022/11/06 04:48:50;;;;;;;140.15;44.63;;;;;;;;;;4848252;29;20245;-55
2022/11/06 04:51:21;;;;;;;122.60;43.55;;;;;;;;;;4848409;29;20203;-56
2022/11/06 04:53:48;;;;;;;139.57;46.33;;;;;;;;;;4847458;29;20206;-55
2022/11/06 04:56:28;;;;;;;122.47;42.80;;;;;;;;;;4863173;29;20210;-55
2022/11/06 04:58:59;;;;;;;130.60;43.25;;;;;;;;;;4863242;29;20195;-56
2022/11/06 05:01:27;;;;;;;153.52;43.22;;;;;;;;;;4863000;29;20290;-55
2022/11/06 05:03:54;;;;;;;130.10;43.60;;;;;;;;;;4863239;29;20207;-57
2022/11/06 05:06:21;;;;;;;144.57;44.65;;;;;;;;;;4862933;29;20218;-57
2022/11/06 05:08:57;;;;;;;139.43;44.10;;;;;;;;;;4862763;29;20206;-57
2022/11/06 05:11:24;;;;;;;135.43;43.78;;;;;;;;;;4862852;29;20210;-57
2022/11/06 05:13:51;;;;;;;141.05;44.58;;;;;;;;;;4862391;29;20255;-56
2022/11/06 05:16:18;;;;;;;140.88;43.83;;;;;;;;;;4862324;29;20738;-55
2022/11/06 05:18:45;;;;;;;149.95;45.95;;;;;;;;;;4862123;29;20210;-55
2022/11/06 05:23:57;;;;;;;141.80;44.97;;;;;;;;;;4920189;29;20539;-55
2022/11/06 05:26:24;;;;;;;126.93;43.28;;;;;;;;;;4920067;29;20205;-56
2022/11/06 05:28:51;;;;;;;134.98;44.85;;;;;;;;;;4920026;29;20303;-56
2022/11/06 05:31:18;;;;;;;135.57;43.05;;;;;;;;;;4919850;29;20703;-58
2022/11/06 05:33:45;;;;;;;125.68;41.67;;;;;;;;;;4919748;29;20236;-54
2022/11/06 05:36:12;;;;;;;126.10;43.47;;;;;;;;;;4919889;29;20208;-55
2022/11/06 05:38:39;;;;;;;124.20;43.08;;;;;;;;;;4919884;29;20300;-56
2022/11/06 05:41:06;;;;;;;116.47;42.33;;;;;;;;;;4919817;29;20212;-58
2022/11/06 05:43:33;;;;;;;122.50;40.65;;;;;;;;;;4919864;29;20231;-55
2022/11/06 05:46:00;;;;;;;105.93;38.33;;;;;;;;;;4919661;29;20229;-55
2022/11/06 05:48:27;;;;;;;108.57;39.10;;;;;;;;;;4919781;29;20629;-58
2022/11/06 05:51:05;;;;;;;104.78;38.53;;;;;;;;;;4919556;29;20212;-55
2022/11/06 05:53:33;;;;;;;105.00;37.35;;;;;;;;;;4919640;29;20517;-55
2022/11/06 05:56:00;;;;;;;96.40;36.78;;;;;;;;;;4919714;29;20223;-58
2022/11/06 05:58:27;;;;;;;96.82;37.38;;;;;;;;;;4919530;29;20208;-54
2022/11/06 06:00:55;;;;;;;97.55;37.63;;;;;;;;;;4919292;29;20213;-56
2022/11/06 06:03:22;;;;;;;108.78;38.28;;;;;;;;;;4919430;29;20291;-55
2022/11/06 06:05:50;;;;;;;103.85;38.03;;;;;;;;;;4919337;29;20557;-56
2022/11/06 06:08:17;;;;;;;107.28;39.72;;;;;;;;;;4919485;29;20704;-55
2022/11/06 06:10:45;;;;;;;105.68;39.88;;;;;;;;;;4919035;29;20655;-53
2022/11/06 06:13:13;;;;;;;108.28;38.42;;;;;;;;;;4919334;29;20205;-57
2022/11/06 06:15:41;;;;;;;102.18;37.72;;;;;;;;;;4919676;29;20233;-56
2022/11/06 06:18:08;;;;;;;112.03;37.67;;;;;;;;;;4919377;29;20201;-55
2022/11/06 06:20:35;;;;;;;102.55;38.08;;;;;;;;;;4919328;29;20216;-56
2022/11/06 06:23:03;;;;;;;116.30;39.30;;;;;;;;;;4919649;29;20216;-54
2022/11/06 06:25:34;;;;;;;107.25;39.45;;;;;;;;;;4919177;29;20244;-58
2022/11/06 06:28:02;;;;;;;117.90;40.72;;;;;;;;;;4919149;29;20205;-55
2022/11/06 06:30:29;;;;;;;109.88;40.47;;;;;;;;;;4919185;29;20299;-56
2022/11/06 06:33:04;;;;;;;94.03;35.45;;;;;;;;;;4919768;29;20239;-57
2022/11/06 06:35:31;;;;;;;86.03;35.55;;;;;;;;;;4919133;29;20228;-54
2022/11/06 06:37:58;;;;;;;90.20;35.67;;;;;;;;;;4918809;29;20632;-57
2022/11/06 06:40:25;;;;;;;90.47;35.20;;;;;;;;;;4918785;29;20299;-54
2022/11/06 06:42:56;;;;;;;84.93;34.03;;;;;;;;;;4919031;29;20205;-57
2022/11/06 06:45:24;;;;;;;89.07;35.80;;;;;;;;;;4918713;29;20323;-56
2022/11/06 06:47:51;;;;;;;84.82;34.47;;;;;;;;;;4918944;29;20205;-56
2022/11/06 06:50:18;;;;;;;82.75;34.85;;;;;;;;;;4914229;29;20231;-57
2022/11/06 06:52:46;;;;;;;91.38;33.90;;;;;;;;;;4917649;29;20235;-53
2022/11/06 06:55:13;;;;;;;82.97;33.80;;;;;;;;;;4917672;29;20229;-55
2022/11/06 06:57:40;;;;;;;73.32;31.50;;;;;;;;;;4917477;29;20243;-57
2022/11/06 07:00:08;;;;;;;71.38;31.70;;;;;;;;;;4917393;29;20232;-57
2022/11/06 07:02:35;;;;;;;71.72;30.58;;;;;;;;;;4917578;29;20378;-55
2022/11/06 07:05:02;;;;;;;72.00;30.85;;;;;;;;;;4917152;29;20371;-52
2022/11/06 07:07:29;;;;;;;68.57;30.77;;;;;;;;;;4917972;29;20225;-57
2022/11/06 07:09:56;;;;;;;66.47;30.38;;;;;;;;;;4917589;29;20253;-56
2022/11/06 07:12:23;;;;;;;60.03;28.48;;;;;;;;;;4919042;29;20547;-59
2022/11/06 07:14:50;;;;;;;64.50;29.20;;;;;;;;;;4926046;29;20252;-55
2022/11/06 07:17:17;;;;;;;61.20;28.95;;;;;;;;;;4922621;29;20315;-57
2022/11/06 07:19:44;;;;;;;63.05;28.25;;;;;;;;;;4926186;29;20322;-53
2022/11/06 07:22:11;;;;;;;58.40;27.20;;;;;;;;;;4920555;29;20295;-51
2022/11/06 07:24:38;;;;;;;62.55;27.92;;;;;;;;;;4927340;29;20330;-54
2022/11/06 07:27:05;;;;;;;61.67;26.38;;;;;;;;;;4936796;29;20232;-56
2022/11/06 07:29:32;;;;;;;73.32;26.90;;;;;;;;;;4936232;29;20666;-56
2022/11/06 07:31:59;;;;;;;65.55;26.13;;;;;;;;;;4917141;29;20232;-57
2022/11/06 07:34:26;;;;;;;69.32;27.85;;;;;;;;;;4916581;29;20655;-55
2022/11/06 07:36:53;;;;;;;67.47;27.38;;;;;;;;;;4917074;29;20315;-53
2022/11/06 07:39:20;;;;;;;67.88;26.48;;;;;;;;;;4922164;29;20227;-57
2022/11/06 07:41:47;;;;;;;60.58;26.13;;;;;;;;;;4919585;29;20543;-58
2022/11/06 07:44:14;;;;;;;63.42;27.55;;;;;;;;;;4917605;29;20227;-53
2022/11/06 07:46:41;;;;;;;62.95;24.85;;;;;;;;;;4917136;29;20259;-55
2022/11/06 07:49:08;;;;;;;58.35;25.33;;;;;;;;;;4922256;29;20280;-52
2022/11/06 07:51:35;;;;;;;63.75;25.63;;;;;;;;;;4916850;29;20233;-50
2022/11/06 07:54:02;;;;;;;63.55;25.70;;;;;;;;;;4917234;29;20256;-57
2022/11/06 07:56:30;;;;;;;59.10;24.83;;;;;;;;;;4917079;29;20750;-55
2022/11/06 07:58:57;;;;;;;58.80;24.38;;;;;;;;;;4917505;29;20225;-56
2022/11/06 08:01:24;;;;;;;60.60;24.42;;;;;;;;;;4931841;29;20232;-56
2022/11/06 08:03:51;;;;;;;56.42;24.20;;;;;;;;;;4935983;29;20240;-52
2022/11/06 08:06:18;;;;;;;55.00;23.08;;;;;;;;;;4936391;29;20299;-56
2022/11/06 08:08:45;;;;;;;55.60;23.60;;;;;;;;;;4927380;29;20680;-58
2022/11/06 08:11:13;;;;;;;50.55;24.55;;;;;;;;;;4917370;29;20251;-58
2022/11/06 08:13:40;;;;;;;42.20;19.42;;;;;;;;;;4916513;29;20335;-55
2022/11/06 08:16:09;;;;;;;45.63;21.25;;;;;;;;;;4917526;29;20699;-56
2022/11/06 08:18:36;;;;;;;49.13;21.35;;;;;;;;;;4916375;29;20752;-50
2022/11/06 08:21:04;;;;;;;46.80;21.52;;;;;;;;;;4917081;29;20232;-50
2022/11/06 08:23:32;;;;;;;48.03;20.45;;;;;;;;;;4917003;29;20323;-56
2022/11/06 08:26:02;;;;;;;48.67;21.88;;;;;;;;;;4927962;29;20232;-52
2022/11/06 08:28:29;;;;;;;47.42;21.58;;;;;;;;;;4917139;29;20249;-55
2022/11/06 08:30:56;;;;;;;48.17;21.05;;;;;;;;;;4920635;29;20232;-51
2022/11/06 08:33:23;;;;;;;48.08;21.60;;;;;;;;;;4920209;29;20229;-55
2022/11/06 08:35:50;;;;;;;42.17;21.25;;;;;;;;;;4921537;29;20208;-58
2022/11/06 08:38:18;;;;;;;53.13;22.15;;;;;;;;;;4921050;29;20599;-56
2022/11/06 08:40:45;;;;;;;46.25;22.08;;;;;;;;;;4920560;29;20204;-51
2022/11/06 08:43:19;;;;;;;40.35;19.50;;;;;;;;;;4921069;29;20284;-56
2022/11/06 08:45:46;;;;;;;46.40;21.42;;;;;;;;;;4920786;29;20237;-52
2022/11/06 08:48:13;;;;;;;45.20;20.85;;;;;;;;;;4921065;29;20531;-50
2022/11/06 08:50:40;;;;;;;43.53;20.27;;;;;;;;;;4920736;29;20237;-51
2022/11/06 08:53:07;;;;;;;45.10;21.25;;;;;;;;;;4920408;29;20240;-57
2022/11/06 08:55:36;;;;;;;42.83;19.92;;;;;;;;;;4920877;29;20215;-50
2022/11/06 08:58:04;;;;;;;42.53;19.10;;;;;;;;;;4920210;29;20209;-51
2022/11/06 09:00:32;;;;;;;42.33;20.17;;;;;;;;;;4919774;29;20548;-50
2022/11/06 09:03:00;;;;;;;40.05;19.83;;;;;;;;;;4920628;29;20551;-57
2022/11/06 09:05:28;;;;;;;40.88;19.40;;;;;;;;;;4920832;29;20225;-52
2022/11/06 09:07:56;;;;;;;45.17;19.75;;;;;;;;;;4920908;29;20204;-51
2022/11/06 09:10:24;;;;;;;42.95;21.17;;;;;;;;;;4920372;29;20220;-51
2022/11/06 09:12:51;;;;;;;45.40;20.50;;;;;;;;;;4920332;29;20269;-51
2022/11/06 09:15:19;;;;;;;38.13;20.63;;;;;;;;;;4920417;29;20247;-52
2022/11/06 09:17:48;;;;;;;45.13;20.63;;;;;;;;;;4920288;29;20280;-55
2022/11/06 09:20:17;;;;;;;37.83;20.08;;;;;;;;;;4920343;29;20538;-55
2022/11/06 09:22:45;;;;;;;41.78;19.05;;;;;;;;;;4920098;29;20193;-57
2022/11/06 09:25:13;;;;;;;43.28;21.83;;;;;;;;;;4920038;29;20220;-56
2022/11/06 09:27:48;;;;;;;41.15;21.35;;;;;;;;;;4920638;29;20295;-52
2022/11/06 09:30:22;;;;;;;42.83;21.35;;;;;;;;;;4920415;29;20248;-52
2022/11/06 09:32:51;;;;;;;41.17;23.25;;;;;;;;;;4920011;29;20310;-53
2022/11/06 09:35:20;;;;;;;42.40;22.95;;;;;;;;;;4919803;29;20280;-53
2022/11/06 09:37:47;;;;;;;40.35;22.35;;;;;;;;;;4920018;29;20531;-51
2022/11/06 09:40:29;;;;;;;48.72;23.95;;;;;;;;;;4919556;29;20648;-54
2022/11/06 09:42:56;;;;;;;45.20;23.60;;;;;;;;;;4920519;29;20271;-54
2022/11/06 09:45:26;;;;;;;40.35;21.77;;;;;;;;;;4919981;29;20205;-51
2022/11/06 09:48:01;;;;;;;42.10;21.58;;;;;;;;;;4903668;29;20727;-55
2022/11/06 09:50:31;;;;;;;43.28;22.63;;;;;;;;;;4902967;29;20205;-54
2022/11/06 09:53:03;;;;;;;42.00;22.27;;;;;;;;;;4887936;29;20209;-55
2022/11/06 09:55:37;;;;;;;41.65;21.67;;;;;;;;;;4904062;29;20208;-53
2022/11/06 09:58:10;;;;;;;41.42;22.02;;;;;;;;;;4903445;29;20212;-51
2022/11/06 10:00:39;;;;;;;39.22;21.83;;;;;;;;;;4903485;29;20543;-52
2022/11/06 10:03:15;;;;;;;41.45;21.67;;;;;;;;;;4919910;29;20292;-51
2022/11/06 10:05:44;;;;;;;38.03;19.65;;;;;;;;;;4903395;29;20268;-53
2022/11/06 10:08:19;;;;;;;33.58;19.48;;;;;;;;;;4903037;29;20236;-54
2022/11/06 10:11:06;;;;;;;38.67;19.38;;;;;;;;;;4919710;29;20512;-54
2022/11/06 10:13:45;;;;;;;31.38;17.45;;;;;;;;;;4919520;29;20232;-55
2022/11/06 10:16:30;;;;;;;29.20;15.65;;;;;;;;;;4916411;29;20236;-56
2022/11/06 10:19:27;;;;;;;37.22;17.20;;;;;;;;;;4917012;29;20259;-58
2022/11/06 10:22:07;;;;;;;34.88;17.73;;;;;;;;;;4898966;29;20229;-58
2022/11/06 10:25:00;;;;;;;34.42;17.33;;;;;;;;;;4918586;29;20224;-55
2022/11/06 10:27:44;;;;;;;29.10;17.48;;;;;;;;;;4901767;29;20243;-54
2022/11/06 10:30:13;;;;;;;31.10;16.30;;;;;;;;;;4901078;29;20697;-51
2022/11/06 10:33:10;;;;;;;27.90;16.58;;;;;;;;;;4902028;29;20228;-49
2022/11/06 10:36:06;;;;;;;29.52;16.60;;;;;;;;;;4917720;29;20243;-54
2022/11/06 10:38:35;;;;;;;32.00;15.15;;;;;;;;;;4917252;29;20292;-50
2022/11/06 10:41:02;;;;;;;33.17;17.77;;;;;;;;;;4901357;29;20841;-49
2022/11/06 10:43:34;;;;;;;40.92;20.00;;;;;;;;;;4917657;29;20763;-56
2022/11/06 10:46:23;;;;;;;32.67;16.15;;;;;;;;;;4916724;29;20318;-51
2022/11/06 10:49:11;;;;;;;25.45;14.85;;;;;;;;;;4900635;29;20296;-51
2022/11/06 10:52:32;;;;;;;29.80;15.02;;;;;;;;;;4901080;29;20229;-55
2022/11/06 10:55:05;;;;;;;30.65;14.65;;;;;;;;;;4878203;29;20230;-50
2022/11/06 10:57:57;;;;;;;29.42;14.48;;;;;;;;;;4916986;29;20228;-52
2022/11/06 11:00:24;;;;;;;28.73;15.35;;;;;;;;;;4917637;29;20240;-51
2022/11/06 11:02:54;;;;;;;27.35;15.23;;;;;;;;;;4901165;29;20263;-51
2022/11/06 11:05:23;;;;;;;24.35;14.15;;;;;;;;;;4901171;29;20244;-52
2022/11/06 11:07:50;;;;;;;28.77;13.98;;;;;;;;;;4901001;29;20239;-54
2022/11/06 11:10:27;;;;;;;27.27;14.43;;;;;;;;;;4917935;29;20256;-52
2022/11/06 11:12:56;;;;;;;24.83;14.25;;;;;;;;;;4917800;29;20228;-54
2022/11/06 11:15:25;;;;;;;24.05;14.18;;;;;;;;;;4900455;29;20645;-54
2022/11/06 11:18:10;;;;;;;23.98;13.55;;;;;;;;;;4916369;29;20669;-55
2022/11/06 11:20:40;;;;;;;27.50;13.23;;;;;;;;;;4916234;29;20235;-54
2022/11/06 11:23:13;;;;;;;20.42;11.27;;;;;;;;;;4916897;29;20315;-51
2022/11/06 11:26:21;;;;;;;25.75;12.63;;;;;;;;;;4916984;29;20229;-54
2022/11/06 11:28:56;;;;;;;32.30;13.95;;;;;;;;;;4916871;29;20240;-56
2022/11/06 11:31:34;;;;;;;23.70;13.30;;;;;;;;;;4917410;29;20227;-53
2022/11/06 11:34:03;;;;;;;20.67;11.88;;;;;;;;;;4900847;29;20278;-50
2022/11/06 11:36:53;;;;;;;23.05;12.32;;;;;;;;;;4885578;29;20616;-53
2022/11/06 11:39:29;;;;;;;23.02;12.32;;;;;;;;;;4901259;29;20225;-49
2022/11/06 11:42:30;;;;;;;19.75;12.10;;;;;;;;;;4917629;29;20300;-50
2022/11/06 11:45:09;;;;;;;20.67;11.35;;;;;;;;;;4859076;29;20249;-51
2022/11/06 11:47:38;;;;;;;20.45;10.95;;;;;;;;;;4859329;29;20242;-51
2022/11/06 11:50:20;;;;;;;24.00;10.75;;;;;;;;;;4859592;29;20317;-52
2022/11/06 11:52:51;;;;;;;21.50;12.02;;;;;;;;;;4858675;29;20241;-56
2022/11/06 11:55:22;;;;;;;20.15;11.50;;;;;;;;;;4856912;29;20364;-54
2022/11/06 11:57:50;;;;;;;21.05;12.05;;;;;;;;;;4862443;29;20226;-53
2022/11/06 12:00:19;;;;;;;21.75;11.00;;;;;;;;;;4859327;29;20247;-51
2022/11/06 12:02:53;;;;;;;18.88;11.98;;;;;;;;;;4859664;29;20226;-51
2022/11/06 12:05:31;;;;;;;19.70;10.95;;;;;;;;;;4847931;29;20230;-53
2022/11/06 12:07:58;;;;;;;20.13;10.77;;;;;;;;;;4861048;29;20238;-55
2022/11/06 12:10:32;;;;;;;17.98;10.20;;;;;;;;;;4880652;29;20240;-51
2022/11/06 12:13:05;;;;;;;16.67;9.35;;;;;;;;;;4880391;29;20674;-49
2022/11/06 12:15:53;;;;;;;16.20;10.20;;;;;;;;;;4864545;29;20242;-50
2022/11/06 12:18:31;;;;;;;18.75;10.65;;;;;;;;;;4880269;29;20234;-56
2022/11/06 12:21:05;;;;;;;14.00;9.32;;;;;;;;;;4906407;29;20232;-51
2022/11/06 12:23:49;;;;;;;16.83;9.77;;;;;;;;;;4919802;29;20547;-49
2022/11/06 12:26:32;;;;;;;17.80;8.68;;;;;;;;;;4919703;29;20232;-52
2022/11/06 12:29:28;;;;;;;21.23;9.85;;;;;;;;;;4918999;29;20232;-54
2022/11/06 12:32:06;;;;;;;20.02;9.20;;;;;;;;;;4899560;29;20232;-49
2022/11/06 12:34:53;;;;;;;21.88;8.02;;;;;;;;;;4900024;29;20241;-49
2022/11/06 12:37:58;;;;;;;17.15;8.55;;;;;;;;;;4901502;29;20223;-52
2022/11/06 12:40:31;;;;;;;16.10;8.55;;;;;;;;;;4898664;29;20221;-50
2022/11/06 12:43:16;;;;;;;16.15;8.85;;;;;;;;;;4902992;29;20225;-51
2022/11/06 12:46:08;;;;;;;17.35;8.82;;;;;;;;;;4899600;29;20565;-48
2022/11/06 12:48:43;;;;;;;21.42;10.43;;;;;;;;;;4899347;29;20217;-49
2022/11/06 12:52:01;;;;;;;19.48;10.57;;;;;;;;;;4900102;29;20272;-48
2022/11/06 12:54:43;;;;;;;29.10;11.57;;;;;;;;;;4845947;29;20766;-49
2022/11/06 12:57:31;;;;;;;20.80;10.68;;;;;;;;;;4843753;29;20235;-51
2022/11/06 13:00:27;;;;;;;32.45;11.77;;;;;;;;;;4842929;29;20243;-51
2022/11/06 13:03:12;;;;;;;19.52;10.70;;;;;;;;;;4843459;29;20238;-52
2022/11/06 13:05:56;;;;;;;19.88;11.20;;;;;;;;;;4843555;29;20322;-50
2022/11/06 13:08:57;;;;;;;20.25;10.95;;;;;;;;;;4828614;29;20249;-49
2022/11/06 13:11:36;;;;;;;19.80;10.70;;;;;;;;;;4828495;29;20645;-53
2022/11/06 13:14:16;;;;;;;20.50;10.88;;;;;;;;;;4827958;29;20243;-51
2022/11/06 13:17:01;;;;;;;22.55;11.32;;;;;;;;;;4841484;29;20341;-51
2022/11/06 13:19:40;;;;;;;18.33;10.95;;;;;;;;;;4843480;29;20231;-51
2022/11/06 13:22:34;;;;;;;23.52;11.73;;;;;;;;;;4843172;29;20227;-52
2022/11/06 13:25:04;;;;;;;19.25;8.80;;;;;;;;;;4813202;29;20722;-49
2022/11/06 13:27:37;;;;;;;21.58;10.68;;;;;;;;;;4842917;29;20247;-52
2022/11/06 13:30:13;;;;;;;17.73;9.00;;;;;;;;;;4866832;29;20685;-55
2022/11/06 13:32:44;;;;;;;22.27;9.82;;;;;;;;;;4882766;29;20289;-50
2022/11/06 13:35:20;;;;;;;19.80;8.98;;;;;;;;;;4897640;29;20265;-52
2022/11/06 13:37:48;;;;;;;18.75;8.63;;;;;;;;;;4898907;29;20233;-53
2022/11/06 13:40:15;;;;;;;13.27;5.90;;;;;;;;;;4899892;29;20241;-54
2022/11/06 13:42:48;;;;;;;15.77;6.85;;;;;;;;;;4900013;29;20379;-54
2022/11/06 13:45:16;;;;;;;15.00;6.80;;;;;;;;;;4900324;29;20233;-57
2022/11/06 13:47:56;;;;;;;18.08;7.35;;;;;;;;;;4899596;29;20332;-56
2022/11/06 13:50:45;;;;;;;14.90;7.25;;;;;;;;;;4900263;29;20277;-53
2022/11/06 13:53:18;;;;;;;13.73;7.70;;;;;;;;;;4900591;29;20233;-55
2022/11/06 13:56:21;;;;;;;16.38;8.25;;;;;;;;;;4899928;29;20247;-55
2022/11/06 13:59:06;;;;;;;18.08;8.18;;;;;;;;;;4899201;29;20221;-54
2022/11/06 14:02:14;;;;;;;21.27;8.07;;;;;;;;;;4899576;29;20305;-52
2022/11/06 14:05:12;;;;;;;15.82;7.93;;;;;;;;;;4900020;29;20236;-54
2022/11/06 14:07:40;;;;;;;20.60;8.73;;;;;;;;;;4899542;29;20241;-54
2022/11/06 14:10:22;;;;;;;14.93;8.45;;;;;;;;;;4899101;29;20632;-54
2022/11/06 14:12:49;;;;;;;18.75;8.60;;;;;;;;;;4898219;29;20243;-54
2022/11/06 14:15:19;;;;;;;15.48;7.75;;;;;;;;;;4905081;29;20277;-49
2022/11/06 14:18:20;;;;;;;18.42;8.38;;;;;;;;;;4916978;29;20292;-49
2022/11/06 14:20:47;;;;;;;15.02;8.02;;;;;;;;;;4880872;29;20241;-51
2022/11/06 14:23:29;;;;;;;15.05;7.78;;;;;;;;;;4915605;29;20236;-51
2022/11/06 14:26:01;;;;;;;14.35;8.18;;;;;;;;;;4918089;29;20308;-50
2022/11/06 14:28:31;;;;;;;14.55;7.65;;;;;;;;;;4916783;29;20303;-53
2022/11/06 14:30:58;;;;;;;20.60;8.73;;;;;;;;;;4917900;29;20248;-50
2022/11/06 14:33:48;;;;;;;15.50;7.75;;;;;;;;;;4917208;29;20233;-55
2022/11/06 14:36:24;;;;;;;18.70;8.10;;;;;;;;;;4918576;29;20220;-49
2022/11/06 14:38:52;;;;;;;22.17;7.40;;;;;;;;;;4918288;29;20240;-51
2022/11/06 14:41:34;;;;;;;17.27;7.13;;;;;;;;;;4917493;29;20333;-52
2022/11/06 14:44:14;;;;;;;19.80;7.28;;;;;;;;;;4916803;29;20224;-56
2022/11/06 14:46:49;;;;;;;21.20;7.43;;;;;;;;;;4914844;29;20257;-49
2022/11/06 14:49:28;;;;;;;14.48;7.38;;;;;;;;;;4918105;29;20567;-50
2022/11/06 14:52:02;;;;;;;19.05;7.65;;;;;;;;;;4917827;29;20676;-48
2022/11/06 14:54:29;;;;;;;18.38;7.78;;;;;;;;;;4917384;29;20605;-48
2022/11/06 14:56:57;;;;;;;16.00;8.60;;;;;;;;;;4905096;29;20242;-50
2022/11/06 14:59:28;;;;;;;19.02;7.97;;;;;;;;;;4899126;29;20233;-48
2022/11/06 15:02:22;;;;;;;17.02;8.50;;;;;;;;;;4882533;29;20237;-49
2022/11/06 15:05:00;;;;;;;17.55;8.18;;;;;;;;;;4898102;29;20240;-49
2022/11/06 15:07:34;;;;;;;17.10;8.10;;;;;;;;;;4898290;29;20237;-48